Time;durP1;ratioP1;P1;durP2;ratioP2;P2;SDS_P1;SDS_P2;PMS_P1;PMS_P2;Temp;Humidity;BMP_temperature;BMP_pressure;BME280_temperature;BME280_humidity;BME280_pressure;Samples;Min_cycle;Max_cycle;Signal;HPM_P1;HPM_P2
2023/05/14 00:01:28;;;;;;;2.97;2.60;;;;;;;;;;5118877;27;20037;-85
2023/05/14 00:03:53;;;;;;;3.30;3.00;;;;;;;;;;5118493;27;20031;-86
2023/05/14 00:06:19;;;;;;;3.78;2.67;;;;;;;;;;5154277;27;20022;-85
2023/05/14 00:08:44;;;;;;;2.97;2.63;;;;;;;;;;5101427;27;20338;-86
2023/05/14 00:11:10;;;;;;;4.72;2.72;;;;;;;;;;5135435;27;20027;-85
2023/05/14 00:13:35;;;;;;;2.72;2.50;;;;;;;;;;5154051;27;20445;-85
2023/05/14 00:16:01;;;;;;;2.70;2.38;;;;;;;;;;5135816;27;20083;-87
2023/05/14 00:18:26;;;;;;;4.47;2.85;;;;;;;;;;5135712;27;20449;-86
2023/05/14 00:20:53;;;;;;;4.05;3.00;;;;;;;;;;5118601;27;20504;-87
2023/05/14 00:23:20;;;;;;;4.28;2.58;;;;;;;;;;5119322;27;20027;-86
2023/05/14 00:25:45;;;;;;;5.55;2.70;;;;;;;;;;5137768;27;20063;-86
2023/05/14 00:28:11;;;;;;;3.50;2.70;;;;;;;;;;5154522;27;20389;-87
2023/05/14 00:30:36;;;;;;;4.30;2.70;;;;;;;;;;5118665;27;20023;-86
2023/05/14 00:33:02;;;;;;;4.60;2.80;;;;;;;;;;5135976;27;20030;-86
2023/05/14 00:35:27;;;;;;;3.80;2.97;;;;;;;;;;5118947;27;20031;-86
2023/05/14 00:37:53;;;;;;;5.78;2.75;;;;;;;;;;5135988;27;20031;-86
2023/05/14 00:40:18;;;;;;;7.35;2.92;;;;;;;;;;5135595;27;20019;-86
2023/05/14 00:42:44;;;;;;;2.95;2.50;;;;;;;;;;5118690;27;20066;-86
2023/05/14 00:45:10;;;;;;;4.65;2.60;;;;;;;;;;5136260;27;20042;-86
2023/05/14 00:47:35;;;;;;;3.10;2.72;;;;;;;;;;5155433;27;20388;-86
2023/05/14 00:50:02;;;;;;;2.78;2.58;;;;;;;;;;5140137;27;20046;-86
2023/05/14 00:52:28;;;;;;;3.10;2.30;;;;;;;;;;5139416;27;20107;-87
2023/05/14 00:54:53;;;;;;;3.35;2.60;;;;;;;;;;5139619;27;20034;-87
2023/05/14 00:57:20;;;;;;;3.30;2.72;;;;;;;;;;5158145;27;20029;-86
2023/05/14 00:59:45;;;;;;;4.07;2.55;;;;;;;;;;5139570;27;20081;-87
2023/05/14 01:02:11;;;;;;;4.00;2.80;;;;;;;;;;5139696;27;20031;-86
2023/05/14 01:04:37;;;;;;;5.80;2.50;;;;;;;;;;5138866;27;20026;-86
2023/05/14 01:07:27;;;;;;;9.38;2.70;;;;;;;;;;5139312;27;20436;-86
2023/05/14 01:10:06;;;;;;;2.83;2.47;;;;;;;;;;5157960;27;20133;-86
2023/05/14 01:13:05;;;;;;;4.53;2.50;;;;;;;;;;5139330;27;20465;-87
2023/05/14 01:15:32;;;;;;;5.00;2.78;;;;;;;;;;5157948;27;20031;-85
2023/05/14 01:18:07;;;;;;;4.13;2.70;;;;;;;;;;5121722;27;20051;-86
2023/05/14 01:20:32;;;;;;;3.72;2.58;;;;;;;;;;5121789;27;20098;-85
2023/05/14 01:22:58;;;;;;;2.72;2.38;;;;;;;;;;5157341;27;20050;-85
2023/05/14 01:25:23;;;;;;;3.03;2.50;;;;;;;;;;5157354;27;20082;-85
2023/05/14 01:27:52;;;;;;;3.15;2.60;;;;;;;;;;5138750;27;20433;-85
2023/05/14 01:30:30;;;;;;;2.83;2.50;;;;;;;;;;5121502;27;20035;-86
2023/05/14 01:32:59;;;;;;;3.97;2.80;;;;;;;;;;5139188;27;20052;-86
2023/05/14 01:35:27;;;;;;;2.60;2.40;;;;;;;;;;5139111;27;20038;-85
2023/05/14 01:37:55;;;;;;;3.70;2.60;;;;;;;;;;5121266;27;20444;-85
2023/05/14 01:40:22;;;;;;;3.03;2.38;;;;;;;;;;5138859;27;20373;-85
2023/05/14 01:42:50;;;;;;;3.25;2.80;;;;;;;;;;5139799;27;20034;-86
2023/05/14 01:45:16;;;;;;;2.70;2.50;;;;;;;;;;5138612;27;20026;-85
2023/05/14 01:47:42;;;;;;;3.35;2.67;;;;;;;;;;5157265;27;20031;-85
2023/05/14 01:50:08;;;;;;;4.10;2.47;;;;;;;;;;5138519;27;20414;-85
2023/05/14 01:52:33;;;;;;;2.80;2.58;;;;;;;;;;5138330;27;20034;-85
2023/05/14 01:54:58;;;;;;;3.85;2.60;;;;;;;;;;5120898;27;20117;-85
2023/05/14 01:57:24;;;;;;;2.80;2.60;;;;;;;;;;5121057;27;20031;-85
2023/05/14 01:59:50;;;;;;;3.72;2.72;;;;;;;;;;5120077;27;20027;-85
2023/05/14 02:02:15;;;;;;;4.78;3.08;;;;;;;;;;5121258;27;20544;-85
2023/05/14 02:04:40;;;;;;;2.60;2.40;;;;;;;;;;5121140;27;20071;-86
2023/05/14 02:07:06;;;;;;;4.03;2.47;;;;;;;;;;5137984;27;20464;-86
2023/05/14 02:09:31;;;;;;;4.78;2.58;;;;;;;;;;5120707;27;20050;-85
2023/05/14 02:11:56;;;;;;;2.88;2.30;;;;;;;;;;5120683;27;20366;-85
2023/05/14 02:14:22;;;;;;;4.93;2.35;;;;;;;;;;5137796;27;20039;-85
2023/05/14 02:16:47;;;;;;;3.55;2.80;;;;;;;;;;5120524;27;20039;-85
2023/05/14 02:19:12;;;;;;;3.88;2.10;;;;;;;;;;5120380;27;20045;-85
2023/05/14 02:21:38;;;;;;;2.45;2.20;;;;;;;;;;5156406;27;20027;-86
2023/05/14 02:24:03;;;;;;;3.53;2.40;;;;;;;;;;5156292;27;20031;-86
2023/05/14 02:26:29;;;;;;;4.28;2.60;;;;;;;;;;5156212;27;20469;-86
2023/05/14 02:28:54;;;;;;;2.65;2.45;;;;;;;;;;5137550;27;20091;-86
2023/05/14 02:31:20;;;;;;;3.95;2.80;;;;;;;;;;5156216;27;20118;-86
2023/05/14 02:33:45;;;;;;;3.97;2.95;;;;;;;;;;5137631;27;20031;-88
2023/05/14 02:36:10;;;;;;;3.25;2.42;;;;;;;;;;5156023;27;20097;-87
2023/05/14 02:38:36;;;;;;;3.67;2.60;;;;;;;;;;5104502;27;20106;-87
2023/05/14 02:41:01;;;;;;;3.63;2.63;;;;;;;;;;5155838;27;20022;-86
2023/05/14 02:43:27;;;;;;;7.65;2.40;;;;;;;;;;5138116;27;20031;-86
2023/05/14 02:45:52;;;;;;;3.30;2.60;;;;;;;;;;5157425;27;20038;-86
2023/05/14 02:48:17;;;;;;;2.63;2.20;;;;;;;;;;5120517;27;20038;-86
2023/05/14 02:50:43;;;;;;;3.83;2.60;;;;;;;;;;5137165;27;20037;-87
2023/05/14 02:53:08;;;;;;;2.42;2.10;;;;;;;;;;5137412;27;20041;-84
2023/05/14 02:55:34;;;;;;;3.33;2.70;;;;;;;;;;5136938;27;20030;-84
2023/05/14 02:58:00;;;;;;;3.67;2.53;;;;;;;;;;5137353;27;20500;-86
2023/05/14 03:00:25;;;;;;;3.40;2.60;;;;;;;;;;5155527;27;20031;-85
2023/05/14 03:02:51;;;;;;;2.70;2.40;;;;;;;;;;5137413;27;20105;-85
2023/05/14 03:05:16;;;;;;;3.30;2.70;;;;;;;;;;5136698;27;20034;-85
2023/05/14 03:07:41;;;;;;;4.53;2.85;;;;;;;;;;5155494;27;20026;-85
2023/05/14 03:10:07;;;;;;;2.50;2.30;;;;;;;;;;5136442;27;20022;-84
2023/05/14 03:12:32;;;;;;;3.00;2.55;;;;;;;;;;5155828;27;20368;-85
2023/05/14 03:14:58;;;;;;;2.72;2.50;;;;;;;;;;5136616;27;20086;-84
2023/05/14 03:17:23;;;;;;;3.08;2.63;;;;;;;;;;5155022;27;20077;-84
2023/05/14 03:19:48;;;;;;;3.65;2.65;;;;;;;;;;5155422;27;20382;-84
2023/05/14 03:22:14;;;;;;;4.18;2.63;;;;;;;;;;5155555;27;20038;-85
2023/05/14 03:24:39;;;;;;;2.40;2.20;;;;;;;;;;5119278;27;20022;-85
2023/05/14 03:27:05;;;;;;;2.78;2.47;;;;;;;;;;5155232;27;20046;-85
2023/05/14 03:29:30;;;;;;;2.67;2.22;;;;;;;;;;5136623;27;20385;-85
2023/05/14 03:31:56;;;;;;;2.92;2.63;;;;;;;;;;5136306;27;20038;-85
2023/05/14 03:34:21;;;;;;;3.35;2.58;;;;;;;;;;5155181;27;20079;-85
2023/05/14 03:36:47;;;;;;;2.67;2.47;;;;;;;;;;5119055;27;20033;-86
2023/05/14 03:39:18;;;;;;;3.95;2.53;;;;;;;;;;5119450;27;20026;-85
2023/05/14 03:41:44;;;;;;;3.42;2.45;;;;;;;;;;5137130;27;20130;-85
2023/05/14 03:44:09;;;;;;;2.90;2.40;;;;;;;;;;5154871;27;20114;-85
2023/05/14 03:46:34;;;;;;;3.08;2.50;;;;;;;;;;5119072;27;20152;-85
2023/05/14 03:49:00;;;;;;;3.00;2.40;;;;;;;;;;5136391;27;20027;-84
2023/05/14 03:51:25;;;;;;;2.95;2.45;;;;;;;;;;5154649;27;20038;-85
2023/05/14 03:53:51;;;;;;;2.70;2.50;;;;;;;;;;5135699;27;20038;-84
2023/05/14 03:56:16;;;;;;;3.60;2.65;;;;;;;;;;5154787;27;20422;-85
2023/05/14 03:58:41;;;;;;;3.67;2.70;;;;;;;;;;5154364;27;20096;-85
2023/05/14 04:01:07;;;;;;;3.38;2.75;;;;;;;;;;5136028;27;20026;-85
2023/05/14 04:03:32;;;;;;;3.40;2.60;;;;;;;;;;5119363;27;20548;-85
2023/05/14 04:05:57;;;;;;;2.72;2.22;;;;;;;;;;5136283;27;20037;-85
2023/05/14 04:08:23;;;;;;;2.67;2.33;;;;;;;;;;5155086;27;20019;-85
2023/05/14 04:10:49;;;;;;;3.13;2.45;;;;;;;;;;5154892;27;20045;-88
2023/05/14 04:13:14;;;;;;;3.78;2.47;;;;;;;;;;5119857;27;20087;-85
2023/05/14 04:15:40;;;;;;;4.22;2.85;;;;;;;;;;5136323;27;20049;-85
2023/05/14 04:18:05;;;;;;;4.45;2.50;;;;;;;;;;5119071;27;20467;-86
2023/05/14 04:20:30;;;;;;;3.83;2.58;;;;;;;;;;5155411;27;20102;-84
2023/05/14 04:22:56;;;;;;;2.85;2.30;;;;;;;;;;5139307;27;20069;-84
2023/05/14 04:25:21;;;;;;;2.75;2.33;;;;;;;;;;5123369;27;20033;-84
2023/05/14 04:27:46;;;;;;;4.97;2.70;;;;;;;;;;5140526;27;20022;-84
2023/05/14 04:30:12;;;;;;;4.45;2.53;;;;;;;;;;5140608;27;20026;-84
2023/05/14 04:32:38;;;;;;;4.30;2.50;;;;;;;;;;5163043;27;20130;-85
2023/05/14 04:35:03;;;;;;;3.13;2.58;;;;;;;;;;5141255;27;20038;-85
2023/05/14 04:37:29;;;;;;;3.58;2.60;;;;;;;;;;5159230;27;20026;-82
2023/05/14 04:39:55;;;;;;;2.67;2.40;;;;;;;;;;5159416;27;20026;-83
2023/05/14 04:42:21;;;;;;;2.58;2.38;;;;;;;;;;5140521;27;20039;-84
2023/05/14 04:44:46;;;;;;;3.63;2.72;;;;;;;;;;5140554;27;20109;-84
2023/05/14 04:47:11;;;;;;;5.30;2.60;;;;;;;;;;5123311;27;20062;-84
2023/05/14 04:49:37;;;;;;;3.20;2.53;;;;;;;;;;5158646;27;20022;-84
2023/05/14 04:52:02;;;;;;;3.38;2.60;;;;;;;;;;5123016;27;20039;-85
2023/05/14 04:54:28;;;;;;;2.75;2.20;;;;;;;;;;5158956;27;20037;-85
2023/05/14 04:56:54;;;;;;;2.50;2.30;;;;;;;;;;5140060;27;20027;-85
2023/05/14 04:59:20;;;;;;;3.78;2.50;;;;;;;;;;5158642;27;20430;-85
2023/05/14 05:01:45;;;;;;;3.05;2.67;;;;;;;;;;5158481;27;20091;-84
2023/05/14 05:04:11;;;;;;;4.05;2.50;;;;;;;;;;5158473;27;20033;-84
2023/05/14 05:06:36;;;;;;;4.60;2.30;;;;;;;;;;5139911;27;20054;-84
2023/05/14 05:09:02;;;;;;;2.65;2.40;;;;;;;;;;5139979;27;20022;-84
2023/05/14 05:11:27;;;;;;;2.80;2.60;;;;;;;;;;5139562;27;20030;-84
2023/05/14 05:13:52;;;;;;;2.55;2.30;;;;;;;;;;5139869;27;20416;-83
2023/05/14 05:16:18;;;;;;;3.50;2.60;;;;;;;;;;5122406;27;20033;-84
2023/05/14 05:18:44;;;;;;;2.33;2.13;;;;;;;;;;5157853;27;20042;-84
2023/05/14 05:21:09;;;;;;;3.20;2.33;;;;;;;;;;5139768;27;20042;-83
2023/05/14 05:23:35;;;;;;;2.42;2.22;;;;;;;;;;5158260;27;20023;-85
2023/05/14 05:26:00;;;;;;;3.35;2.38;;;;;;;;;;5139507;27;20373;-84
2023/05/14 05:28:26;;;;;;;3.85;2.78;;;;;;;;;;5139710;27;20019;-83
2023/05/14 05:30:51;;;;;;;2.60;2.40;;;;;;;;;;5158011;27;20019;-85
2023/05/14 05:33:16;;;;;;;3.13;2.38;;;;;;;;;;5139072;27;20545;-84
2023/05/14 05:35:43;;;;;;;2.35;2.08;;;;;;;;;;5138842;27;20523;-86
2023/05/14 05:38:08;;;;;;;4.30;2.63;;;;;;;;;;5139627;27;20095;-85
2023/05/14 05:40:34;;;;;;;6.32;2.90;;;;;;;;;;5138521;27;20022;-88
2023/05/14 05:42:59;;;;;;;2.95;2.50;;;;;;;;;;5138902;27;20080;-86
2023/05/14 05:45:25;;;;;;;2.83;2.55;;;;;;;;;;5157521;27;20074;-87
2023/05/14 05:47:50;;;;;;;3.33;2.80;;;;;;;;;;5157546;27;20057;-87
2023/05/14 05:50:15;;;;;;;3.83;2.40;;;;;;;;;;5104694;27;20079;-87
2023/05/14 05:52:41;;;;;;;3.38;2.70;;;;;;;;;;5157889;27;20031;-87
2023/05/14 05:55:07;;;;;;;3.75;2.70;;;;;;;;;;5121747;27;20130;-86
2023/05/14 05:57:32;;;;;;;7.13;2.90;;;;;;;;;;5157373;27;20131;-84
2023/05/14 05:59:58;;;;;;;3.35;2.92;;;;;;;;;;5157395;27;20026;-87
2023/05/14 06:02:23;;;;;;;3.03;2.63;;;;;;;;;;5139187;27;20118;-86
2023/05/14 06:04:49;;;;;;;3.00;2.70;;;;;;;;;;5138906;27;20508;-87
2023/05/14 06:07:14;;;;;;;4.38;2.88;;;;;;;;;;5157149;27;20035;-87
2023/05/14 06:09:40;;;;;;;3.38;2.70;;;;;;;;;;5156463;27;20027;-85
2023/05/14 06:12:05;;;;;;;4.13;2.80;;;;;;;;;;5156767;27;20035;-86
2023/05/14 06:14:31;;;;;;;3.50;2.70;;;;;;;;;;5138389;27;20042;-85
2023/05/14 06:16:57;;;;;;;3.97;2.67;;;;;;;;;;5156940;27;20118;-85
2023/05/14 06:19:22;;;;;;;4.07;2.90;;;;;;;;;;5156929;27;20027;-84
2023/05/14 06:21:48;;;;;;;3.70;2.63;;;;;;;;;;5156713;27;20539;-86
2023/05/14 06:24:13;;;;;;;4.53;2.72;;;;;;;;;;5157788;27;20031;-80
2023/05/14 06:26:39;;;;;;;4.80;2.70;;;;;;;;;;5156239;27;20034;-83
2023/05/14 06:29:04;;;;;;;3.03;2.58;;;;;;;;;;5137668;27;20046;-84
2023/05/14 06:31:30;;;;;;;3.45;2.72;;;;;;;;;;5156189;27;20109;-84
2023/05/14 06:33:55;;;;;;;6.72;2.72;;;;;;;;;;5156143;27;20064;-84
2023/05/14 06:36:20;;;;;;;2.67;2.45;;;;;;;;;;5155417;27;20034;-83
2023/05/14 06:38:46;;;;;;;4.30;2.63;;;;;;;;;;5155900;27;20110;-83
2023/05/14 06:41:11;;;;;;;4.57;2.63;;;;;;;;;;5122040;27;20525;-83
2023/05/14 06:43:36;;;;;;;2.85;2.60;;;;;;;;;;5158502;27;20159;-85
2023/05/14 06:46:02;;;;;;;3.25;2.47;;;;;;;;;;5137159;27;20513;-85
2023/05/14 06:48:28;;;;;;;3.28;2.50;;;;;;;;;;5155943;27;20115;-85
2023/05/14 06:50:54;;;;;;;4.60;2.70;;;;;;;;;;5137336;27;20031;-84
2023/05/14 06:53:19;;;;;;;3.90;2.67;;;;;;;;;;5103213;27;20477;-84
2023/05/14 06:55:46;;;;;;;2.85;2.45;;;;;;;;;;5137204;27;20172;-84
2023/05/14 06:58:11;;;;;;;2.70;2.25;;;;;;;;;;5137311;27;20027;-85
2023/05/14 07:00:37;;;;;;;4.10;2.53;;;;;;;;;;5137115;27;20026;-84
2023/05/14 07:03:03;;;;;;;3.95;2.70;;;;;;;;;;5119833;27;20030;-85
2023/05/14 07:05:28;;;;;;;2.88;2.22;;;;;;;;;;5137154;27;20389;-84
2023/05/14 07:07:54;;;;;;;3.28;2.45;;;;;;;;;;5136714;27;20098;-84
2023/05/14 07:10:19;;;;;;;3.88;2.50;;;;;;;;;;5155280;27;20537;-84
2023/05/14 07:12:45;;;;;;;3.20;2.30;;;;;;;;;;5137009;27;20069;-83
2023/05/14 07:15:11;;;;;;;2.97;2.65;;;;;;;;;;5155395;27;20032;-84
2023/05/14 07:17:36;;;;;;;3.97;2.67;;;;;;;;;;5136886;27;20069;-84
2023/05/14 07:20:02;;;;;;;3.60;2.83;;;;;;;;;;5155137;27;20052;-84
2023/05/14 07:22:27;;;;;;;5.53;2.63;;;;;;;;;;5134963;27;20060;-82
2023/05/14 07:24:53;;;;;;;6.10;2.92;;;;;;;;;;5136461;27;20080;-82
2023/05/14 07:27:18;;;;;;;4.93;2.50;;;;;;;;;;5154919;27;20030;-82
2023/05/14 07:29:44;;;;;;;13.35;3.70;;;;;;;;;;5137053;27;20038;-92
2023/05/14 07:32:09;;;;;;;8.45;3.53;;;;;;;;;;5126550;27;20030;-90
2023/05/14 07:34:35;;;;;;;7.32;3.22;;;;;;;;;;5121182;27;20038;-92
2023/05/14 07:37:00;;;;;;;14.45;3.97;;;;;;;;;;5102338;27;20067;-94
2023/05/14 07:39:26;;;;;;;9.02;3.92;;;;;;;;;;5110784;27;20038;-92
2023/05/14 07:41:53;;;;;;;11.98;3.92;;;;;;;;;;5136675;27;20031;-90
2023/05/14 07:44:19;;;;;;;15.82;4.05;;;;;;;;;;5137022;27;20050;-86
2023/05/14 07:46:44;;;;;;;9.95;3.25;;;;;;;;;;5136901;27;20050;-86
2023/05/14 07:49:10;;;;;;;9.00;3.25;;;;;;;;;;5136541;27;20037;-87
2023/05/14 07:51:35;;;;;;;7.20;3.30;;;;;;;;;;5155511;27;20015;-87
2023/05/14 07:54:00;;;;;;;6.22;2.80;;;;;;;;;;5139241;27;20034;-93
2023/05/14 07:56:26;;;;;;;4.43;2.80;;;;;;;;;;5124246;27;20034;-86
2023/05/14 07:58:51;;;;;;;6.57;3.03;;;;;;;;;;5142494;27;20023;-85
2023/05/14 08:01:17;;;;;;;5.68;2.97;;;;;;;;;;5156691;27;20079;-85
2023/05/14 08:03:42;;;;;;;7.45;2.97;;;;;;;;;;5164779;27;20019;-83
2023/05/14 08:06:07;;;;;;;6.22;2.72;;;;;;;;;;5137271;27;20031;-85
2023/05/14 08:08:33;;;;;;;8.25;2.70;;;;;;;;;;5137048;27;20045;-86
2023/05/14 08:10:58;;;;;;;6.18;2.75;;;;;;;;;;5119406;27;20495;-86
2023/05/14 08:13:24;;;;;;;6.80;3.05;;;;;;;;;;5138330;27;20035;-85
2023/05/14 08:15:50;;;;;;;7.22;2.53;;;;;;;;;;5137521;27;20027;-87
2023/05/14 08:18:15;;;;;;;4.80;2.92;;;;;;;;;;5154878;27;20497;-84
2023/05/14 08:20:40;;;;;;;5.75;2.78;;;;;;;;;;5155040;27;20035;-85
2023/05/14 08:23:06;;;;;;;10.40;2.80;;;;;;;;;;5136833;27;20026;-85
2023/05/14 08:25:32;;;;;;;5.72;2.88;;;;;;;;;;5136601;27;20370;-86
2023/05/14 08:27:58;;;;;;;8.27;2.75;;;;;;;;;;5136094;27;20030;-86
2023/05/14 08:30:24;;;;;;;4.55;2.78;;;;;;;;;;5153501;27;20050;-84
2023/05/14 08:32:50;;;;;;;7.00;2.97;;;;;;;;;;5153065;27;20049;-84
2023/05/14 08:35:16;;;;;;;3.55;2.35;;;;;;;;;;5134581;27;20023;-84
2023/05/14 08:37:41;;;;;;;6.68;2.55;;;;;;;;;;5135848;27;20465;-85
2023/05/14 08:40:08;;;;;;;3.58;2.53;;;;;;;;;;5135937;27;20027;-84
2023/05/14 08:42:33;;;;;;;4.93;2.50;;;;;;;;;;5119581;27;20026;-84
2023/05/14 08:45:03;;;;;;;4.75;2.80;;;;;;;;;;5137034;27;20034;-84
2023/05/14 08:47:29;;;;;;;3.10;2.33;;;;;;;;;;5118597;27;20061;-84
2023/05/14 08:50:03;;;;;;;8.95;4.20;;;;;;;;;;5136259;27;20029;-85
2023/05/14 08:52:29;;;;;;;33.70;8.23;;;;;;;;;;5119010;27;20023;-87
2023/05/14 08:54:55;;;;;;;29.05;7.50;;;;;;;;;;5119496;27;20550;-89
2023/05/14 08:57:23;;;;;;;25.38;7.15;;;;;;;;;;5122265;27;20125;-86
2023/05/14 08:59:49;;;;;;;22.58;7.05;;;;;;;;;;5137350;27;20018;-86
2023/05/14 09:02:16;;;;;;;23.33;7.43;;;;;;;;;;5119847;27;20490;-93
2023/05/14 09:04:41;;;;;;;26.20;7.25;;;;;;;;;;5119924;27;20022;-85
2023/05/14 09:07:07;;;;;;;21.08;6.57;;;;;;;;;;5136130;27;20027;-88
2023/05/14 09:09:32;;;;;;;20.58;6.55;;;;;;;;;;5121566;27;20378;-89
2023/05/14 09:11:58;;;;;;;18.45;5.32;;;;;;;;;;5123132;27;20035;-90
2023/05/14 09:14:25;;;;;;;17.48;5.30;;;;;;;;;;5140072;27;20493;-86
2023/05/14 09:16:50;;;;;;;13.32;5.55;;;;;;;;;;5158066;27;20030;-90
2023/05/14 09:19:17;;;;;;;12.65;4.50;;;;;;;;;;5107229;27;20046;-89
2023/05/14 09:21:44;;;;;;;14.38;4.32;;;;;;;;;;5123154;27;20022;-90
2023/05/14 09:24:21;;;;;;;15.23;4.97;;;;;;;;;;5106200;27;20030;-90
2023/05/14 09:26:50;;;;;;;10.15;3.90;;;;;;;;;;5128939;27;20046;-90
2023/05/14 09:29:15;;;;;;;11.10;3.97;;;;;;;;;;5148877;27;20022;-90
2023/05/14 09:31:41;;;;;;;11.00;3.70;;;;;;;;;;5132372;27;20471;-92
2023/05/14 09:34:06;;;;;;;9.57;3.50;;;;;;;;;;5107258;27;20380;-90
2023/05/14 09:36:33;;;;;;;7.55;3.15;;;;;;;;;;5122560;27;20034;-90
2023/05/14 09:38:59;;;;;;;9.20;3.55;;;;;;;;;;5139322;27;20023;-87
2023/05/14 09:41:25;;;;;;;6.80;2.95;;;;;;;;;;5157954;27;20026;-89
2023/05/14 09:43:50;;;;;;;8.38;3.20;;;;;;;;;;5139268;27;20039;-87
2023/05/14 09:46:16;;;;;;;4.35;2.85;;;;;;;;;;5122268;27;20031;-86
2023/05/14 09:48:41;;;;;;;6.68;3.22;;;;;;;;;;5139853;27;20026;-88
2023/05/14 09:51:09;;;;;;;5.55;2.97;;;;;;;;;;5125017;27;20094;-89
2023/05/14 09:53:34;;;;;;;5.38;2.90;;;;;;;;;;5122290;27;20026;-84
2023/05/14 09:56:00;;;;;;;8.55;3.28;;;;;;;;;;5121876;27;20023;-84
2023/05/14 09:58:25;;;;;;;7.88;3.20;;;;;;;;;;5157650;27;20381;-84
2023/05/14 10:00:51;;;;;;;10.60;4.10;;;;;;;;;;5139120;27;20027;-85
2023/05/14 10:03:17;;;;;;;9.73;4.07;;;;;;;;;;5121996;27;20086;-84
2023/05/14 10:05:43;;;;;;;9.85;4.22;;;;;;;;;;5139231;27;20055;-85
2023/05/14 10:08:13;;;;;;;9.82;3.88;;;;;;;;;;5104797;27;20054;-84
2023/05/14 10:10:39;;;;;;;9.73;3.53;;;;;;;;;;5139224;27;20030;-86
2023/05/14 10:13:11;;;;;;;8.77;3.20;;;;;;;;;;5139180;27;20031;-83
2023/05/14 10:15:42;;;;;;;14.85;3.08;;;;;;;;;;5138046;27;21228;-86
2023/05/14 10:18:13;;;;;;;10.88;3.63;;;;;;;;;;5121198;27;20043;-85
2023/05/14 10:20:39;;;;;;;11.35;3.30;;;;;;;;;;5138105;27;20444;-88
2023/05/14 10:23:06;;;;;;;8.43;3.22;;;;;;;;;;5138859;27;20105;-89
2023/05/14 10:25:33;;;;;;;8.45;3.40;;;;;;;;;;5122549;27;20018;-89
2023/05/14 10:27:59;;;;;;;13.80;3.72;;;;;;;;;;5157151;27;20018;-89
2023/05/14 10:30:25;;;;;;;6.55;3.17;;;;;;;;;;5139599;27;20046;-88
2023/05/14 10:33:08;;;;;;;8.68;3.15;;;;;;;;;;5141146;27;20019;-88
2023/05/14 10:35:59;;;;;;;14.80;3.25;;;;;;;;;;5121282;27;20037;-88
2023/05/14 10:38:28;;;;;;;7.50;2.85;;;;;;;;;;5129625;27;20035;-90
2023/05/14 10:40:59;;;;;;;9.80;3.10;;;;;;;;;;5138620;27;20113;-87
2023/05/14 10:43:29;;;;;;;5.40;3.38;;;;;;;;;;5138505;27;20027;-89
2023/05/14 10:45:55;;;;;;;8.27;3.30;;;;;;;;;;5122228;27;20456;-88
2023/05/14 10:48:21;;;;;;;9.95;3.20;;;;;;;;;;5123264;27;20057;-87
2023/05/14 10:50:47;;;;;;;14.02;3.60;;;;;;;;;;5105730;27;20046;-88
2023/05/14 10:53:12;;;;;;;9.45;3.28;;;;;;;;;;5157018;27;20496;-89
2023/05/14 10:55:38;;;;;;;5.70;3.13;;;;;;;;;;5138347;27;20042;-89
2023/05/14 10:58:04;;;;;;;6.35;3.28;;;;;;;;;;5120930;27;20027;-88
2023/05/14 11:00:32;;;;;;;5.53;2.90;;;;;;;;;;5137932;27;20023;-88
2023/05/14 11:02:59;;;;;;;5.78;2.90;;;;;;;;;;5120533;27;20392;-89
2023/05/14 11:05:26;;;;;;;5.43;3.20;;;;;;;;;;5120440;27;20023;-89
2023/05/14 11:07:55;;;;;;;5.03;2.85;;;;;;;;;;5138236;27;20026;-87
2023/05/14 11:10:24;;;;;;;4.47;3.15;;;;;;;;;;5121527;27;20067;-88
2023/05/14 11:12:50;;;;;;;5.32;2.97;;;;;;;;;;5121688;27;20031;-86
2023/05/14 11:15:17;;;;;;;6.45;3.30;;;;;;;;;;5137042;27;20038;-87
2023/05/14 11:17:44;;;;;;;5.18;2.78;;;;;;;;;;5155301;27;20039;-88
2023/05/14 11:20:10;;;;;;;5.18;2.85;;;;;;;;;;5156109;27;20019;-88
2023/05/14 11:22:37;;;;;;;4.90;2.33;;;;;;;;;;5136875;27;20023;-86
2023/05/14 11:25:05;;;;;;;9.13;3.15;;;;;;;;;;5137036;27;20023;-85
2023/05/14 11:27:33;;;;;;;8.68;3.20;;;;;;;;;;5137238;27;20046;-86
2023/05/14 11:29:59;;;;;;;7.13;3.38;;;;;;;;;;5136403;27;20474;-87
2023/05/14 11:32:25;;;;;;;8.50;3.05;;;;;;;;;;5102095;27;20034;-86
2023/05/14 11:34:51;;;;;;;11.18;3.60;;;;;;;;;;5152397;27;20038;-87
2023/05/14 11:37:16;;;;;;;7.47;3.20;;;;;;;;;;5155916;27;20057;-86
2023/05/14 11:39:52;;;;;;;8.30;3.00;;;;;;;;;;5155600;27;20054;-85
2023/05/14 11:42:18;;;;;;;7.45;3.28;;;;;;;;;;5136994;27;20031;-86
2023/05/14 11:44:49;;;;;;;7.70;3.60;;;;;;;;;;5155600;27;20043;-87
2023/05/14 11:47:15;;;;;;;7.57;3.22;;;;;;;;;;5155798;27;20148;-87
2023/05/14 11:49:40;;;;;;;14.02;3.75;;;;;;;;;;5138631;27;20055;-87
2023/05/14 11:52:13;;;;;;;7.90;3.15;;;;;;;;;;5156253;27;20103;-86
2023/05/14 11:54:38;;;;;;;7.35;3.22;;;;;;;;;;5135582;27;20473;-86
2023/05/14 11:57:09;;;;;;;5.90;2.95;;;;;;;;;;5136166;27;20029;-86
2023/05/14 11:59:35;;;;;;;9.63;3.28;;;;;;;;;;5131651;27;20031;-86
2023/05/14 12:02:02;;;;;;;7.38;2.92;;;;;;;;;;5132655;27;20045;-84
2023/05/14 12:04:28;;;;;;;5.20;3.00;;;;;;;;;;5115844;27;20393;-85
2023/05/14 12:06:53;;;;;;;7.45;3.20;;;;;;;;;;5134521;27;20122;-86
2023/05/14 12:09:20;;;;;;;12.13;3.28;;;;;;;;;;5115463;28;20030;-84
2023/05/14 12:11:46;;;;;;;9.10;3.17;;;;;;;;;;5117068;27;20084;-86
2023/05/14 12:14:20;;;;;;;4.32;2.55;;;;;;;;;;5110577;27;20034;-85
2023/05/14 12:16:46;;;;;;;6.38;3.15;;;;;;;;;;5169292;22;20025;-86
2023/05/14 12:19:17;;;;;;;6.05;2.90;;;;;;;;;;5070312;28;20036;-88
2023/05/14 12:21:44;;;;;;;5.82;2.67;;;;;;;;;;5058914;28;20040;-88
2023/05/14 12:24:11;;;;;;;4.35;2.80;;;;;;;;;;5074969;28;20025;-88
2023/05/14 12:26:38;;;;;;;4.93;2.70;;;;;;;;;;5094219;28;20032;-86
2023/05/14 12:29:07;;;;;;;4.30;2.50;;;;;;;;;;5074898;28;20027;-88
2023/05/14 12:31:33;;;;;;;7.03;3.05;;;;;;;;;;5058308;28;20028;-86
2023/05/14 12:33:59;;;;;;;5.40;2.83;;;;;;;;;;5057794;28;20032;-87
2023/05/14 12:36:24;;;;;;;6.82;2.92;;;;;;;;;;5090847;28;20025;-85
2023/05/14 12:38:58;;;;;;;4.40;2.47;;;;;;;;;;5074707;28;20021;-85
2023/05/14 12:41:23;;;;;;;6.88;2.38;;;;;;;;;;5074427;28;20085;-85
2023/05/14 12:43:49;;;;;;;5.97;2.85;;;;;;;;;;5094361;28;20028;-87
2023/05/14 12:46:15;;;;;;;4.63;2.28;;;;;;;;;;5078619;28;20032;-86
2023/05/14 12:48:41;;;;;;;3.28;2.25;;;;;;;;;;5109591;28;20078;-88
2023/05/14 12:51:06;;;;;;;7.38;2.42;;;;;;;;;;5098841;28;20516;-86
2023/05/14 12:53:33;;;;;;;4.35;2.40;;;;;;;;;;5082080;28;20382;-85
2023/05/14 12:55:58;;;;;;;4.63;2.28;;;;;;;;;;5082555;28;20394;-84
2023/05/14 12:58:23;;;;;;;3.42;2.40;;;;;;;;;;5098893;28;20028;-86
2023/05/14 13:00:49;;;;;;;3.55;2.22;;;;;;;;;;5116982;28;20015;-88
2023/05/14 13:03:14;;;;;;;3.15;2.40;;;;;;;;;;5098668;28;20027;-86
2023/05/14 13:05:40;;;;;;;4.80;2.22;;;;;;;;;;5064892;28;20114;-86
2023/05/14 13:08:05;;;;;;;4.15;2.47;;;;;;;;;;5080375;28;20028;-84
2023/05/14 13:10:31;;;;;;;4.50;2.53;;;;;;;;;;5081061;28;20390;-84
2023/05/14 13:12:57;;;;;;;3.15;2.30;;;;;;;;;;5081695;28;20032;-86
2023/05/14 13:15:22;;;;;;;5.68;2.67;;;;;;;;;;5098265;28;20034;-84
2023/05/14 13:17:48;;;;;;;5.38;2.38;;;;;;;;;;5116593;28;20032;-84
2023/05/14 13:20:13;;;;;;;2.97;2.13;;;;;;;;;;5081368;28;20043;-85
2023/05/14 13:22:39;;;;;;;3.08;2.38;;;;;;;;;;5081663;28;20024;-84
2023/05/14 13:25:06;;;;;;;7.82;2.17;;;;;;;;;;5100399;28;20023;-87
2023/05/14 13:27:32;;;;;;;4.65;2.15;;;;;;;;;;5081618;28;20481;-86
2023/05/14 13:29:57;;;;;;;3.97;2.20;;;;;;;;;;5116609;28;20371;-84
2023/05/14 13:32:24;;;;;;;4.97;2.58;;;;;;;;;;5116780;28;20137;-87
2023/05/14 13:34:50;;;;;;;2.78;2.20;;;;;;;;;;5098799;28;20023;-86
2023/05/14 13:37:15;;;;;;;3.50;2.10;;;;;;;;;;5081856;28;20500;-88
2023/05/14 13:39:40;;;;;;;4.18;2.17;;;;;;;;;;5096335;28;20032;-86
2023/05/14 13:42:06;;;;;;;6.43;2.40;;;;;;;;;;5081184;28;20098;-85
2023/05/14 13:44:31;;;;;;;4.13;2.40;;;;;;;;;;5116762;28;20042;-86
2023/05/14 13:46:57;;;;;;;3.22;2.28;;;;;;;;;;5098348;28;20062;-86
2023/05/14 13:49:22;;;;;;;3.60;2.35;;;;;;;;;;5081364;28;20039;-84
2023/05/14 13:51:47;;;;;;;3.65;2.22;;;;;;;;;;5097988;28;20102;-85
2023/05/14 13:54:13;;;;;;;4.80;2.50;;;;;;;;;;5098214;28;20065;-85
2023/05/14 13:56:38;;;;;;;7.53;2.30;;;;;;;;;;5097355;28;20031;-86
2023/05/14 13:59:04;;;;;;;6.03;2.90;;;;;;;;;;5098140;28;20036;-84
2023/05/14 14:01:30;;;;;;;4.05;2.10;;;;;;;;;;5098608;28;20027;-85
2023/05/14 14:03:55;;;;;;;4.20;2.15;;;;;;;;;;5081039;28;20359;-83
2023/05/14 14:06:21;;;;;;;4.13;2.20;;;;;;;;;;5064262;28;20028;-84
2023/05/14 14:08:46;;;;;;;4.97;2.25;;;;;;;;;;5097889;28;20027;-87
2023/05/14 14:11:12;;;;;;;2.95;1.90;;;;;;;;;;5115820;28;20114;-86
2023/05/14 14:13:38;;;;;;;3.92;2.10;;;;;;;;;;5115956;28;20032;-86
2023/05/14 14:16:05;;;;;;;9.13;2.63;;;;;;;;;;5081329;28;20035;-85
2023/05/14 14:18:31;;;;;;;4.30;2.03;;;;;;;;;;5080453;28;20083;-89
2023/05/14 14:20:56;;;;;;;5.50;2.38;;;;;;;;;;5116051;28;20068;-85
2023/05/14 14:23:21;;;;;;;4.63;2.50;;;;;;;;;;5080830;28;20425;-86
2023/05/14 14:25:47;;;;;;;18.73;2.65;;;;;;;;;;5097597;28;20413;-87
2023/05/14 14:28:12;;;;;;;6.60;2.40;;;;;;;;;;5097314;28;20031;-86
2023/05/14 14:30:37;;;;;;;5.72;2.75;;;;;;;;;;5097503;28;20051;-86
2023/05/14 14:33:03;;;;;;;5.07;2.60;;;;;;;;;;5115563;28;20041;-84
2023/05/14 14:35:29;;;;;;;7.45;2.95;;;;;;;;;;5097660;28;20035;-90